KSBN/SBN METAR and TAF weather

Enter ICAO airport designator
Station Type Date Time Source
KSBN METAR 2019/02/20 16:54 UTC NOAA

KSBN 201654Z 11022G30KT 3SM BR OVC006 M01/M02 A2985 RMK AO2 PK WND 11031/1615 UPB40E41FZRAB11E40 CIG 005V010 SLP118 P0000 I1005 T10061022


Station Type Date Time Source
KSBN Decoded METAR 2019/02/20 16:54 UTC NOAA

SOUTH BEND REGIONAL AIRPORT, IN, United States (KSBN) 41-42N 086-19W 237M
Feb 20, 2019 - 11:54 AM EST / 2019.02.20 1654 UTC
Wind: from the ESE (110 degrees) at 25 MPH (22 KT) gusting to 35 MPH (30 KT):0
Visibility: 3 mile(s):0
Sky conditions: overcast
Weather: mist
Precipitation last hour: A trace
Temperature: 30.9 F (-0.6 C)
Windchill: 17 F (-8 C):1
Dew Point: 28.0 F (-2.2 C)
Relative Humidity: 88%
Pressure (altimeter): 29.85 in. Hg (1010 hPa)
ob: KSBN 201654Z 11022G30KT 3SM BR OVC006 M01/M02 A2985 RMK AO2 PK WND 11031/1615 UPB40E41FZRAB11E40 CIG 005V010 SLP118 P0000 I1005 T10061022
cycle: 17

Station Type Date Time Source
KSBN TAF 2019/02/20 18:24 UTC NOAA

TAF KSBN 201723Z 2018/2118 14018G25KT 4SM BR OVC006
TEMPO 2019/2023 1SM -FZDZ BR OVC004
FM202300 18012KT 4SM BR OVC007
FM210200 24013KT P6SM OVC010
FM210600 25011KT P6SM OVC025
FM211300 26011KT P6SM BKN250


Example: see airport list